Time;durP1;ratioP1;P1;durP2;ratioP2;P2;SDS_P1;SDS_P2;PMS_P1;PMS_P2;Temp;Humidity;BMP_temperature;BMP_pressure;BME280_temperature;BME280_humidity;BME280_pressure;Samples;Min_cycle;Max_cycle;Signal;HPM_P1;HPM_P2
2021/01/21 00:00:09;;;;;;;37.38;18.15;;;;;;;1.63;84.24;99570.58;1753061;80;21269;-79
2021/01/21 00:05:42;;;;;;;58.10;24.63;;;;;;;1.67;84.51;99569.83;1667447;83;21287;-83
2021/01/21 00:08:33;;;;;;;53.20;21.50;;;;;;;1.71;84.13;99565.20;1687557;77;21315;31
2021/01/21 00:14:31;;;;;;;44.70;19.60;;;;;;;1.74;84.15;99570.79;1712660;78;21264;31
2021/01/21 00:17:00;;;;;;;62.40;26.48;;;;;;;1.75;84.21;99569.55;1751223;80;21458;-81
2021/01/21 00:19:28;;;;;;;57.43;25.00;;;;;;;1.79;84.48;99561.06;1735407;82;21284;-83
2021/01/21 00:21:56;;;;;;;53.05;24.10;;;;;;;1.82;84.52;99561.53;1726894;82;21319;-83
2021/01/21 00:24:24;;;;;;;57.67;26.87;;;;;;;1.86;84.54;99562.45;1732767;82;21315;-83
2021/01/21 00:26:52;;;;;;;51.05;24.57;;;;;;;1.87;84.48;99564.16;1745861;81;21790;-88
2021/01/21 00:29:19;;;;;;;50.73;23.22;;;;;;;1.89;84.67;99558.64;1720710;82;21370;-85
2021/01/21 00:31:47;;;;;;;47.80;23.77;;;;;;;1.88;83.78;99564.63;1694626;84;21768;-84
2021/01/21 00:34:16;;;;;;;47.33;19.87;;;;;;;1.84;84.19;99566.69;1682493;84;21831;-83
2021/01/21 00:36:44;;;;;;;48.92;22.50;;;;;;;1.82;83.76;99563.23;1689609;81;21302;-79
2021/01/21 00:39:12;;;;;;;39.23;18.57;;;;;;;1.77;84.11;99564.02;1748800;81;22494;-86
2021/01/21 00:41:40;;;;;;;45.65;20.23;;;;;;;1.74;84.78;99560.11;1744970;80;21272;-81
2021/01/21 00:44:08;;;;;;;47.45;20.45;;;;;;;1.75;84.37;99566.98;1746249;79;21328;-82
2021/01/21 00:52:48;;;;;;;54.90;24.10;;;;;;;1.77;84.42;99560.57;1718751;80;21314;-84
2021/01/21 00:55:17;;;;;;;63.40;24.47;;;;;;;1.79;84.39;99566.59;1762729;79;21235;-81
2021/01/21 00:57:45;;;;;;;61.75;26.33;;;;;;;1.82;84.45;99570.50;1785814;77;21300;-79
2021/01/21 01:00:14;;;;;;;62.05;24.43;;;;;;;1.86;84.21;99566.30;1785854;79;21307;-83
2021/01/21 01:02:44;;;;;;;69.65;30.15;;;;;;;1.87;84.12;99564.16;1803420;78;21191;-87
2021/01/21 01:05:12;;;;;;;54.55;24.20;;;;;;;1.90;84.32;99565.52;1797321;79;21156;-91
2021/01/21 01:07:40;;;;;;;48.85;22.85;;;;;;;1.92;84.23;99562.55;1801105;79;21650;-88
2021/01/21 01:10:08;;;;;;;63.08;26.85;;;;;;;1.90;83.96;99560.39;1792584;79;21221;-89
2021/01/21 01:12:37;;;;;;;70.32;29.75;;;;;;;1.87;84.01;99559.92;1744274;76;21259;-88
2021/01/21 01:15:08;;;;;;;163.62;61.00;;;;;;;1.88;83.85;99554.37;1742919;81;21340;-90
2021/01/21 01:17:36;;;;;;;76.87;32.15;;;;;;;1.86;84.00;99547.92;1762032;79;21262;-86
2021/01/21 01:20:05;;;;;;;69.67;28.42;;;;;;;1.82;83.85;99548.71;1793824;78;21225;-85
2021/01/21 01:22:34;;;;;;;60.92;26.25;;;;;;;1.77;83.82;99544.80;1803162;78;21237;-83
2021/01/21 01:34:42;;;;;;;56.57;22.80;;;;;;;1.67;84.07;99538.18;1760197;77;22534;31
2021/01/21 01:37:11;;;;;;;53.50;22.60;;;;;;;1.69;83.91;99532.66;1768834;77;21232;-79
2021/01/21 01:39:41;;;;;;;55.45;22.95;;;;;;;1.69;83.95;99532.66;1749121;80;21261;-83
2021/01/21 01:42:11;;;;;;;86.72;42.05;;;;;;;1.64;83.80;99526.61;1745493;80;21327;-83
2021/01/21 01:44:40;;;;;;;77.05;35.50;;;;;;;1.74;84.12;99539.59;1765993;79;21166;-88
2021/01/21 01:47:09;;;;;;;79.07;36.05;;;;;;;1.73;83.92;99531.48;1781829;78;21164;-87
2021/01/21 01:49:39;;;;;;;71.47;31.07;;;;;;;1.68;84.38;99522.83;1770819;79;21279;-85
2021/01/21 01:52:07;;;;;;;77.62;33.98;;;;;;;1.67;84.32;99527.92;1708567;79;21189;-83
2021/01/21 01:54:35;;;;;;;68.65;31.87;;;;;;;1.63;83.84;99524.86;1689783;82;21367;-86
2021/01/21 01:57:06;;;;;;;69.65;27.65;;;;;;;1.55;83.67;99528.57;1812596;77;21299;-84
2021/01/21 01:59:36;;;;;;;74.15;29.40;;;;;;;1.49;84.13;99523.34;1804338;76;21228;-82
2021/01/21 02:02:11;;;;;;;68.70;28.30;;;;;;;1.43;83.92;99512.97;1790607;76;21286;31
2021/01/21 02:05:00;;;;;;;70.00;28.52;;;;;;;1.43;84.65;99520.23;1730109;76;21205;31
2021/01/21 02:07:36;;;;;;;89.22;37.05;;;;;;;1.44;84.13;99508.31;1777161;77;22754;31
2021/01/21 02:10:12;;;;;;;76.25;29.45;;;;;;;1.41;84.01;99506.96;1762376;77;21355;31
2021/01/21 02:16:08;;;;;;;70.37;29.85;;;;;;;1.43;84.13;99501.45;1780035;77;22390;-76
2021/01/21 02:25:16;;;;;;;58.83;26.55;;;;;;;1.46;84.48;99493.83;1796246;77;21129;-81
2021/01/21 02:28:07;;;;;;;66.00;27.10;;;;;;;1.47;84.58;99498.10;1791703;77;21139;-87
2021/01/21 02:30:54;;;;;;;62.30;28.27;;;;;;;1.45;83.99;99494.66;1768400;78;21189;-86
2021/01/21 02:33:59;;;;;;;61.77;26.33;;;;;;;1.42;84.21;99489.48;1731330;79;21303;-86
2021/01/21 02:36:48;;;;;;;68.35;26.77;;;;;;;1.39;84.09;99491.55;1691570;79;21441;-82
2021/01/21 02:39:21;;;;;;;60.75;25.15;;;;;;;1.33;84.21;99484.65;1683555;81;21425;-82
2021/01/21 02:42:05;;;;;;;70.10;26.68;;;;;;;1.18;84.08;99468.98;1753367;77;22535;31
2021/01/21 02:44:43;;;;;;;58.50;25.87;;;;;;;1.34;84.36;99502.16;1770565;76;21361;31
2021/01/21 02:47:25;;;;;;;56.48;26.45;;;;;;;1.36;84.47;99494.08;1765253;77;21353;31
2021/01/21 02:56:01;;;;;;;62.43;27.37;;;;;;;1.44;84.17;99496.36;1767367;76;21458;-81
2021/01/21 02:58:42;;;;;;;61.63;28.17;;;;;;;1.43;83.92;99495.05;1775822;77;21367;-83
2021/01/21 03:01:15;;;;;;;62.15;27.77;;;;;;;1.38;83.76;99494.97;1748733;79;21191;-83
2021/01/21 03:03:47;;;;;;;;;;;;;;;1.34;83.57;99497.88;1756417;79;21292;-88
2021/01/21 03:06:18;;;;;;;58.98;24.10;;;;;;;1.27;83.41;99494.75;1754915;77;20552;-82
2021/01/21 03:08:48;;;;;;;55.00;22.80;;;;;;;1.23;83.04;99501.94;1731837;77;21274;-83
2021/01/21 03:14:32;;;;;;;62.40;25.05;;;;;;;1.10;83.45;99493.59;1723506;78;21212;-78
2021/01/21 03:20:20;;;;;;;57.13;24.12;;;;;;;1.06;84.10;99496.93;1794407;77;21109;31
2021/01/21 03:26:05;;;;;;;62.65;26.62;;;;;;;1.04;83.92;99489.64;1748023;77;22426;-80
2021/01/21 03:31:34;;;;;;;62.95;26.93;;;;;;;0.98;83.75;99492.51;1762835;77;21198;-80
2021/01/21 03:34:02;;;;;;;59.00;25.25;;;;;;;0.95;84.00;99487.31;1758379;79;21275;-80
2021/01/21 03:36:31;;;;;;;59.85;26.30;;;;;;;0.93;83.91;99491.97;1735988;77;21260;-82
2021/01/21 03:39:01;;;;;;;65.55;28.35;;;;;;;0.88;83.90;99485.91;1757979;80;21273;-80
2021/01/21 03:41:38;;;;;;;59.05;25.62;;;;;;;0.81;83.68;99486.18;1748900;80;21659;-81
2021/01/21 04:02:51;;;;;;;79.53;33.00;;;;;;;0.20;84.37;99481.91;1767027;76;21172;-83
2021/01/21 04:05:25;;;;;;;77.60;33.33;;;;;;;0.15;84.51;99483.06;1769793;75;21216;-80
2021/01/21 04:56:26;;;;;;;71.65;31.80;;;;;;;-0.82;84.85;99484.91;1774107;75;21224;31
2021/01/21 05:31:43;;;;;;;82.90;31.82;;;;;;;-1.03;86.96;99477.13;1801592;75;22449;-84
2021/01/21 05:34:26;;;;;;;87.60;34.45;;;;;;;-1.07;86.73;99474.05;1730322;78;21293;31
2021/01/21 05:37:02;;;;;;;103.17;36.50;;;;;;;-1.04;86.93;99481.77;1658507;83;21328;-80
2021/01/21 05:39:43;;;;;;;92.35;37.00;;;;;;;-1.05;86.04;99483.03;1668324;81;21404;31
2021/01/21 05:45:27;;;;;;;145.87;50.28;;;;;;;-1.08;85.71;99486.34;1728456;80;21163;-81
2021/01/21 05:48:12;;;;;;;158.63;54.23;;;;;;;-1.08;86.24;99492.72;1721899;78;22484;31
2021/01/21 05:50:40;;;;;;;123.07;42.63;;;;;;;-1.04;86.68;99494.95;1699911;79;21144;-84
2021/01/21 05:56:25;;;;;;;143.23;48.27;;;;;;;-1.07;86.11;99504.67;1660903;81;21183;-82
2021/01/21 06:02:19;;;;;;;112.05;42.93;;;;;;;-1.11;86.41;99504.13;1681961;83;21214;-83
2021/01/21 06:04:50;;;;;;;97.95;38.58;;;;;;;-1.09;86.58;99501.21;1656000;83;21213;-82
2021/01/21 06:07:22;;;;;;;116.75;43.15;;;;;;;-1.06;86.88;99507.66;1647651;85;21328;-82
2021/01/21 06:10:03;;;;;;;103.35;39.45;;;;;;;-1.05;86.94;99501.75;1637296;81;22481;31
2021/01/21 06:12:55;;;;;;;111.60;42.85;;;;;;;-1.01;86.56;99503.98;1642973;82;21303;31
2021/01/21 06:15:23;;;;;;;108.42;42.38;;;;;;;-0.96;86.45;99506.65;1674305;84;21412;-82
2021/01/21 06:18:01;;;;;;;105.45;43.60;;;;;;;-0.90;86.23;99506.81;1718233;81;21108;31
2021/01/21 06:20:40;;;;;;;103.50;40.95;;;;;;;-0.86;86.43;99508.20;1704671;83;21311;-83
2021/01/21 06:33:48;;;;;;;123.82;44.25;;;;;;;-0.64;86.66;99505.84;1833233;77;22204;-80
2021/01/21 06:36:20;;;;;;;110.45;43.78;;;;;;;-0.64;86.59;99505.84;1794330;79;21243;-81
2021/01/21 06:38:52;;;;;;;124.55;49.18;;;;;;;-0.59;86.45;99508.93;1770233;79;21116;-81
2021/01/21 06:41:32;;;;;;;113.00;44.83;;;;;;;-0.51;86.35;99512.13;1722998;80;21461;31
2021/01/21 06:46:58;;;;;;;105.07;38.98;;;;;;;-0.37;86.38;99513.76;1684296;80;21326;-82
2021/01/21 06:49:28;;;;;;;110.35;43.60;;;;;;;-0.34;86.07;99509.98;1717884;79;21407;-82
2021/01/21 06:51:57;;;;;;;103.32;40.85;;;;;;;-0.30;86.04;99509.27;1717793;80;21101;-82
2021/01/21 06:54:26;;;;;;;110.95;45.90;;;;;;;-0.23;86.21;99518.80;1717722;80;21156;-80
2021/01/21 06:56:53;;;;;;;105.03;40.90;;;;;;;-0.23;86.54;99517.52;1717684;80;21270;-81
2021/01/21 06:59:53;;;;;;;97.25;38.13;;;;;;;-0.16;86.51;99515.11;1733701;78;21152;-81
2021/01/21 07:02:48;;;;;;;85.42;35.88;;;;;;;-0.12;86.36;99522.02;1701649;80;21177;-80
2021/01/21 07:05:25;;;;;;;90.40;35.48;;;;;;;-0.01;86.29;99526.58;1736820;78;22505;-82
2021/01/21 07:08:00;;;;;;;92.60;37.67;;;;;;;-0.01;86.96;99530.83;1734882;81;21558;-80
2021/01/21 07:10:47;;;;;;;99.52;40.78;;;;;;;0.08;86.42;99531.06;1725681;81;21264;-82
2021/01/21 07:13:23;;;;;;;104.92;44.48;;;;;;;0.15;86.10;99521.41;1731048;81;21327;-81
2021/01/21 07:16:03;;;;;;;111.85;46.73;;;;;;;0.25;86.28;99528.03;1686498;84;21362;-81
2021/01/21 07:18:37;;;;;;;97.50;42.67;;;;;;;0.36;86.23;99524.89;1732337;82;21293;-84
2021/01/21 07:21:13;;;;;;;94.62;42.00;;;;;;;0.49;86.17;99527.30;1734524;82;21312;-82
2021/01/21 07:23:53;;;;;;;92.33;38.25;;;;;;;0.59;86.03;99525.39;1730788;82;21293;-84
2021/01/21 07:26:34;;;;;;;98.15;40.70;;;;;;;0.67;85.76;99531.95;1688427;84;21142;-80
2021/01/21 07:29:15;;;;;;;92.67;41.50;;;;;;;0.73;85.60;99528.25;1691476;84;21245;-81
2021/01/21 07:32:04;;;;;;;105.75;43.15;;;;;;;0.82;85.47;99519.03;1724643;81;21272;-81
2021/01/21 07:34:44;;;;;;;90.72;36.88;;;;;;;0.91;85.34;99517.95;1735914;81;21250;-85
2021/01/21 07:37:25;;;;;;;96.28;39.78;;;;;;;0.95;84.88;99520.59;1728513;81;21256;-81
2021/01/21 07:40:07;;;;;;;100.75;41.92;;;;;;;1.00;84.73;99520.71;1694313;82;21344;-81
2021/01/21 07:42:40;;;;;;;108.92;44.40;;;;;;;1.02;84.25;99524.59;1709561;84;21331;-81
2021/01/21 07:45:22;;;;;;;102.95;42.70;;;;;;;1.04;83.84;99524.20;1733307;81;21572;-84
2021/01/21 07:47:53;;;;;;;99.07;39.03;;;;;;;1.05;83.75;99518.23;1728851;81;21268;-81
2021/01/21 07:53:10;;;;;;;88.47;35.43;;;;;;;1.12;83.64;99514.55;1849999;74;22925;-82
2021/01/21 07:55:55;;;;;;;81.90;35.68;;;;;;;1.10;83.85;99514.94;1754071;78;21286;31
2021/01/21 07:58:35;;;;;;;97.27;38.20;;;;;;;1.15;83.94;99520.13;1728778;83;21269;-82
2021/01/21 08:01:10;;;;;;;91.70;36.45;;;;;;;1.22;84.06;99521.99;1736060;80;21224;-81
2021/01/21 08:03:43;;;;;;;109.83;42.62;;;;;;;1.27;84.26;99522.08;1713643;82;21267;-84
2021/01/21 08:06:23;;;;;;;131.25;54.30;;;;;;;1.30;84.08;99520.86;1764229;79;21223;-78
2021/01/21 08:08:54;;;;;;;123.90;48.33;;;;;;;1.35;84.14;99507.70;1771459;79;21216;-83
2021/01/21 08:11:24;;;;;;;98.62;43.55;;;;;;;1.43;84.22;99504.86;1689150;80;21285;-84
2021/01/21 08:13:58;;;;;;;91.08;40.88;;;;;;;1.49;84.09;99504.12;1689062;84;21259;-83
2021/01/21 08:16:26;;;;;;;93.40;40.25;;;;;;;1.55;84.11;99505.11;1680620;82;21245;-84
2021/01/21 08:19:03;;;;;;;169.85;65.50;;;;;;;1.58;83.68;99503.01;1701778;82;21344;-87
2021/01/21 08:21:31;;;;;;;118.33;47.33;;;;;;;1.62;84.33;99502.23;1692668;83;21267;-85
2021/01/21 08:24:08;;;;;;;124.25;49.70;;;;;;;1.71;84.02;99494.70;1710620;81;21174;-85
2021/01/21 08:26:43;;;;;;;109.70;47.65;;;;;;;1.77;83.68;99498.65;1673039;83;21314;-84
2021/01/21 08:29:15;;;;;;;109.90;46.80;;;;;;;1.79;83.41;99493.52;1701585;82;21236;-84
2021/01/21 08:31:53;;;;;;;113.03;46.28;;;;;;;1.81;83.36;99497.01;1671728;83;21105;-84
2021/01/21 08:34:33;;;;;;;92.92;39.90;;;;;;;1.86;83.49;99495.80;1698517;83;21258;-85
2021/01/21 08:37:19;;;;;;;109.25;45.12;;;;;;;1.90;83.26;99497.56;1690884;81;21238;-85
2021/01/21 08:39:51;;;;;;;101.55;42.95;;;;;;;1.94;83.09;99499.34;1633391;86;21199;-87
2021/01/21 08:42:19;;;;;;;94.75;38.90;;;;;;;1.99;83.35;99493.88;1631366;88;21211;-88
2021/01/21 08:44:49;;;;;;;98.72;39.75;;;;;;;2.09;83.18;99488.44;1630305;83;21299;-84
2021/01/21 08:47:23;;;;;;;93.00;39.08;;;;;;;2.13;82.88;99484.69;1609977;85;21249;-85
2021/01/21 08:50:48;;;;;;;91.78;39.45;;;;;;;2.21;82.67;99493.78;1634345;83;21164;-83
2021/01/21 08:53:44;;;;;;;91.25;36.45;;;;;;;2.33;83.08;99492.67;1720898;80;21635;-89
2021/01/21 08:56:13;;;;;;;86.85;37.30;;;;;;;2.48;83.02;99489.45;1769040;80;21605;-88
2021/01/21 08:58:41;;;;;;;84.85;36.05;;;;;;;2.58;82.87;99486.16;1779035;80;21097;-84
2021/01/21 09:01:31;;;;;;;78.97;36.75;;;;;;;2.69;82.82;99484.18;1698232;84;21197;-87
2021/01/21 09:07:09;;;;;;;86.97;39.18;;;;;;;3.01;83.16;99493.98;1634981;87;21430;-87
2021/01/21 09:09:42;;;;;;;101.65;43.70;;;;;;;3.12;82.73;99492.38;1630137;87;21313;-88
2021/01/21 09:12:17;;;;;;;127.27;51.05;;;;;;;3.20;82.46;99490.76;1633647;87;21994;-85
2021/01/21 09:15:14;;;;;;;128.23;50.48;;;;;;;3.29;81.83;99491.30;1625855;87;22285;-82
2021/01/21 09:17:42;;;;;;;107.97;45.43;;;;;;;3.36;81.88;99484.96;1631071;87;21212;-89
2021/01/21 09:20:22;;;;;;;99.13;41.80;;;;;;;3.43;81.59;99482.02;1666407;81;21159;-86
2021/01/21 09:22:51;;;;;;;86.78;41.40;;;;;;;3.49;81.02;99478.64;1762524;79;21182;-83
2021/01/21 09:25:28;;;;;;;79.42;39.08;;;;;;;3.50;81.22;99470.95;1751965;80;21711;-83
2021/01/21 09:29:00;;;;;;;82.12;38.58;;;;;;;3.54;81.37;99461.54;1726609;80;21165;-88
2021/01/21 09:31:59;;;;;;;87.55;40.67;;;;;;;3.61;81.27;99463.33;1689178;83;21311;-85
2021/01/21 09:35:00;;;;;;;90.40;42.20;;;;;;;3.64;80.40;99458.63;1706870;79;21173;-85
2021/01/21 09:38:01;;;;;;;92.85;42.23;;;;;;;3.71;80.96;99457.84;1738498;80;21122;-85
2021/01/21 09:40:32;;;;;;;86.23;40.87;;;;;;;3.77;80.56;99447.61;1675617;85;21173;-85
2021/01/21 09:43:07;;;;;;;109.03;46.50;;;;;;;3.90;80.88;99452.00;1630948;82;21269;-86
2021/01/21 09:46:23;;;;;;;92.72;42.03;;;;;;;3.92;80.57;99451.99;1631809;82;21133;-85
2021/01/21 09:50:08;;;;;;;92.47;45.38;;;;;;;4.01;80.87;99452.50;1584375;85;21283;-84
2021/01/21 09:52:55;;;;;;;91.50;41.30;;;;;;;4.03;79.37;99438.79;1653388;81;21443;-91
2021/01/21 09:55:22;;;;;;;83.80;39.23;;;;;;;4.11;79.97;99441.42;1745956;81;21620;-88
2021/01/21 09:57:51;;;;;;;76.82;38.20;;;;;;;4.17;80.07;99437.59;1741519;81;21154;-91
2021/01/21 10:00:38;;;;;;;82.95;38.28;;;;;;;4.23;80.28;99432.91;1719189;80;21392;-86
2021/01/21 10:03:06;;;;;;;81.02;41.10;;;;;;;4.29;80.33;99426.52;1763952;80;21164;-90
2021/01/21 10:05:34;;;;;;;76.95;38.45;;;;;;;4.36;79.79;99424.42;1773706;80;21164;-92
2021/01/21 10:11:05;;;;;;;74.53;35.78;;;;;;;4.44;79.54;99421.45;1751638;80;21121;-90
2021/01/21 10:13:33;;;;;;;60.63;31.57;;;;;;;4.54;79.49;99419.79;1752071;82;21176;-87
2021/01/21 10:16:01;;;;;;;70.28;33.30;;;;;;;4.68;79.73;99419.84;1688620;79;21168;-88
2021/01/21 10:18:29;;;;;;;72.35;32.88;;;;;;;4.74;78.99;99419.43;1664693;85;21177;-89
2021/01/21 10:20:57;;;;;;;63.83;29.23;;;;;;;4.84;78.90;99419.04;1674830;85;21442;-91
2021/01/21 10:23:25;;;;;;;71.40;32.60;;;;;;;4.91;77.11;99409.16;1681235;85;21129;-86
2021/01/21 10:25:53;;;;;;;77.25;34.18;;;;;;;5.02;77.75;99406.63;1701756;80;21375;-87
2021/01/21 10:28:21;;;;;;;73.07;33.28;;;;;;;5.13;78.63;99392.47;1715580;79;21203;-83
2021/01/21 10:30:52;;;;;;;68.05;30.35;;;;;;;5.21;77.81;99389.91;1745449;79;21548;-87
2021/01/21 10:33:23;;;;;;;69.72;31.15;;;;;;;5.28;75.78;99396.37;1695778;78;21221;-86
2021/01/21 10:35:51;;;;;;;63.45;28.57;;;;;;;5.41;78.41;99374.45;1688511;83;21189;-90
2021/01/21 10:38:19;;;;;;;66.53;31.12;;;;;;;5.54;77.83;99369.73;1685590;82;22001;-91
2021/01/21 10:40:47;;;;;;;75.37;33.58;;;;;;;5.68;76.56;99368.00;1659612;85;21208;-91
2021/01/21 10:43:16;;;;;;;73.47;32.80;;;;;;;5.80;77.10;99362.41;1690184;83;21169;-89
2021/01/21 10:46:21;;;;;;;66.17;29.20;;;;;;;5.94;77.61;99357.63;1730726;81;21287;-92
2021/01/21 10:49:22;;;;;;;65.50;29.63;;;;;;;6.09;76.63;99354.64;1671324;83;21227;-91
2021/01/21 10:51:50;;;;;;;63.73;30.35;;;;;;;6.20;76.60;99347.70;1713762;83;22276;-92
2021/01/21 10:54:18;;;;;;;58.78;29.25;;;;;;;6.26;74.71;99352.84;1711336;82;21650;-88
2021/01/21 10:56:46;;;;;;;48.17;26.33;;;;;;;6.41;76.25;99349.80;1715927;82;21334;-87
2021/01/21 10:59:13;;;;;;;49.65;25.72;;;;;;;6.47;73.83;99347.19;1710715;82;21475;-89
2021/01/21 11:01:41;;;;;;;43.95;19.23;;;;;;;6.60;73.68;99342.81;1719670;82;21181;-85
2021/01/21 11:04:09;;;;;;;38.53;19.25;;;;;;;6.72;73.10;99345.33;1721726;81;21165;-88
2021/01/21 11:06:58;;;;;;;38.40;17.73;;;;;;;6.77;72.64;99342.30;1705863;82;21190;-83
2021/01/21 11:12:08;;;;;;;29.75;15.25;;;;;;;6.94;69.57;99324.08;1791587;78;22905;-86
2021/01/21 11:14:36;;;;;;;30.62;16.17;;;;;;;7.08;72.61;99329.16;1781199;79;21233;-89
2021/01/21 11:17:05;;;;;;;38.15;16.07;;;;;;;7.22;72.36;99323.89;1786528;79;21340;-91
2021/01/21 11:19:35;;;;;;;32.38;14.93;;;;;;;7.36;73.37;99321.63;1768287;80;21118;-85
2021/01/21 11:22:22;;;;;;;23.92;12.15;;;;;;;7.40;70.61;99321.17;1782726;79;21285;-85
2021/01/21 11:25:36;;;;;;;25.82;12.88;;;;;;;7.48;69.27;99319.78;1744910;79;21244;-86
2021/01/21 11:28:11;;;;;;;29.23;12.23;;;;;;;7.51;69.23;99321.06;1622434;87;21223;-88
2021/01/21 11:30:39;;;;;;;23.95;11.08;;;;;;;7.64;70.98;99305.86;1660426;84;21335;-91
2021/01/21 11:33:07;;;;;;;22.73;11.15;;;;;;;7.60;69.88;99305.47;1715673;82;21183;-89
2021/01/21 11:35:37;;;;;;;25.02;11.65;;;;;;;7.60;67.67;99300.70;1700925;79;21158;-92
2021/01/21 11:38:05;;;;;;;24.82;11.50;;;;;;;7.67;69.69;99288.14;1691581;83;21644;-92
2021/01/21 11:40:33;;;;;;;23.90;10.98;;;;;;;7.70;68.46;99282.50;1719063;81;21161;-92
2021/01/21 11:43:01;;;;;;;22.02;10.20;;;;;;;7.84;70.40;99287.53;1725287;82;21751;-91
2021/01/21 11:45:33;;;;;;;29.75;10.65;;;;;;;7.82;68.53;99276.75;1730144;81;21217;-90
2021/01/21 11:48:01;;;;;;;26.68;9.68;;;;;;;7.90;68.30;99271.92;1744927;80;21260;-89
2021/01/21 11:50:29;;;;;;;16.20;8.55;;;;;;;7.97;66.54;99273.55;1743124;80;21335;-92
2021/01/21 11:52:57;;;;;;;16.37;7.97;;;;;;;8.03;67.08;99271.33;1708742;82;22119;-89
2021/01/21 11:55:25;;;;;;;19.10;7.87;;;;;;;8.08;68.28;99247.55;1747176;80;21286;-89
2021/01/21 11:57:52;;;;;;;23.15;8.45;;;;;;;8.23;67.05;99254.70;1749046;80;21157;-87
2021/01/21 12:00:21;;;;;;;18.87;7.87;;;;;;;8.25;64.56;99252.94;1743163;81;21328;-88
2021/01/21 12:02:49;;;;;;;20.82;8.10;;;;;;;8.54;67.57;99256.47;1741735;81;21732;-90
2021/01/21 12:05:17;;;;;;;17.15;8.25;;;;;;;8.94;64.34;99261.91;1705403;82;21359;-89
2021/01/21 12:07:45;;;;;;;16.50;8.93;;;;;;;9.50;64.77;99258.38;1715011;82;21285;-89
2021/01/21 12:10:18;;;;;;;23.50;9.78;;;;;;;10.02;58.08;99257.83;1702173;82;21231;-88
2021/01/21 12:12:51;;;;;;;19.25;11.55;;;;;;;10.43;57.28;99258.29;1709650;82;21264;-86
2021/01/21 12:15:25;;;;;;;23.67;10.58;;;;;;;11.04;59.27;99261.65;1687996;82;21209;-85
2021/01/21 12:18:04;;;;;;;20.30;9.93;;;;;;;11.23;57.16;99247.75;1756214;80;21239;-86
2021/01/21 12:20:41;;;;;;;23.18;10.58;;;;;;;11.56;62.13;99246.03;1698205;82;21251;-86
2021/01/21 12:23:17;;;;;;;22.62;11.15;;;;;;;11.94;62.58;99244.16;1699155;83;21248;-87
2021/01/21 12:25:59;;;;;;;20.72;11.53;;;;;;;12.20;61.30;99245.16;1699601;84;21276;-86
2021/01/21 12:28:34;;;;;;;21.45;12.20;;;;;;;12.59;59.77;99243.08;1705855;83;21249;-84
2021/01/21 12:31:06;;;;;;;23.00;11.83;;;;;;;12.31;51.35;99244.38;1671440;82;21253;-85
2021/01/21 12:33:35;;;;;;;33.53;13.25;;;;;;;12.96;56.00;99251.06;1672970;84;21134;-85
2021/01/21 12:39:00;;;;;;;31.50;13.13;;;;;;;13.82;55.60;99244.70;1630745;84;21162;-85
2021/01/21 12:41:29;;;;;;;25.08;13.48;;;;;;;14.04;53.79;99246.92;1707453;84;21170;-85
2021/01/21 12:43:59;;;;;;;23.45;12.65;;;;;;;14.17;52.29;99239.95;1707326;84;21179;-85
2021/01/21 12:46:29;;;;;;;26.93;14.13;;;;;;;14.12;55.57;99235.75;1720193;83;21221;-85
2021/01/21 12:49:02;;;;;;;50.88;25.23;;;;;;;14.25;51.74;99236.13;1712129;81;21181;-84
2021/01/21 12:51:31;;;;;;;25.95;12.93;;;;;;;14.63;54.06;99237.75;1691100;84;21275;-86
2021/01/21 12:54:08;;;;;;;31.35;13.32;;;;;;;14.65;50.42;99239.00;1707257;84;21930;-86
2021/01/21 12:56:39;;;;;;;26.75;14.00;;;;;;;14.82;53.31;99241.81;1734831;79;21260;-85
2021/01/21 12:59:10;;;;;;;33.85;14.80;;;;;;;14.48;50.95;99232.64;1721756;82;21182;-85
2021/01/21 13:01:39;;;;;;;25.97;12.98;;;;;;;14.24;50.17;99231.80;1778179;80;21268;-84
2021/01/21 13:04:11;;;;;;;26.65;11.97;;;;;;;14.02;51.62;99237.44;1748732;80;21294;-84
2021/01/21 13:06:41;;;;;;;21.65;11.55;;;;;;;13.48;48.56;99247.19;1774308;80;21606;-84
2021/01/21 13:09:10;;;;;;;31.75;15.38;;;;;;;13.03;47.75;99235.62;1772817;80;21136;-84
2021/01/21 13:11:38;;;;;;;21.12;12.00;;;;;;;13.10;50.95;99238.87;1779333;79;21474;-84
2021/01/21 13:14:07;;;;;;;24.35;12.65;;;;;;;12.99;47.45;99239.23;1779289;80;21172;-85
2021/01/21 13:16:36;;;;;;;41.40;22.80;;;;;;;13.14;48.92;99230.03;1773369;80;21306;-84
2021/01/21 13:19:05;;;;;;;26.77;11.57;;;;;;;13.72;51.84;99226.73;1767194;80;21173;-85
2021/01/21 13:21:33;;;;;;;24.85;13.98;;;;;;;13.79;47.84;99233.06;1780187;80;21243;-84
2021/01/21 13:24:01;;;;;;;41.70;15.93;;;;;;;14.05;49.74;99233.42;1779368;79;21173;-83
2021/01/21 13:26:29;;;;;;;31.82;14.78;;;;;;;13.95;45.94;99230.29;1781323;79;21274;-85
2021/01/21 13:28:58;;;;;;;28.07;9.98;;;;;;;13.90;51.80;99226.98;1752063;80;21311;-81
2021/01/21 13:31:27;;;;;;;39.20;13.58;;;;;;;13.67;51.60;99237.81;1743204;80;21145;-85
2021/01/21 13:33:56;;;;;;;17.25;8.15;;;;;;;13.05;49.58;99234.23;1750185;80;21208;-85
2021/01/21 13:36:26;;;;;;;42.78;10.45;;;;;;;12.62;51.92;99233.87;1746671;79;21545;-86
2021/01/21 13:38:55;;;;;;;20.40;8.40;;;;;;;12.20;51.85;99236.04;1773049;80;21177;-85
2021/01/21 13:41:27;;;;;;;16.87;7.37;;;;;;;11.91;52.33;99232.50;1699875;80;21148;-86
2021/01/21 13:43:58;;;;;;;20.65;10.18;;;;;;;10.86;51.17;99240.41;1739313;80;21220;-85
2021/01/21 13:46:40;;;;;;;38.75;16.12;;;;;;;10.61;52.49;99234.92;1792540;78;21125;-85
2021/01/21 13:49:10;;;;;;;31.93;13.98;;;;;;;10.43;53.92;99232.30;1728445;80;21287;-85
2021/01/21 13:51:48;;;;;;;34.60;15.38;;;;;;;10.25;54.74;99235.28;1751107;81;21292;-86
2021/01/21 13:54:21;;;;;;;58.05;24.30;;;;;;;10.04;55.25;99236.56;1777728;80;21160;-84
2021/01/21 13:56:53;;;;;;;90.85;41.77;;;;;;;9.76;55.86;99240.56;1722834;80;21266;-86
2021/01/21 13:59:28;;;;;;;54.55;27.67;;;;;;;9.51;56.88;99238.02;1737232;80;21062;-85
2021/01/21 14:01:58;;;;;;;34.38;15.88;;;;;;;9.39;56.76;99243.02;1721275;81;21216;-85
2021/01/21 14:04:32;;;;;;;20.45;11.08;;;;;;;9.17;57.26;99239.91;1736057;80;21235;-84
2021/01/21 14:07:19;;;;;;;22.87;9.48;;;;;;;8.90;58.54;99239.95;1746177;79;21307;-84
2021/01/21 14:10:00;;;;;;;15.85;8.40;;;;;;;8.71;58.59;99248.02;1747495;80;21125;-85
2021/01/21 14:12:39;;;;;;;17.73;8.23;;;;;;;8.45;59.31;99244.48;1699949;81;21265;-86
2021/01/21 14:15:12;;;;;;;21.30;8.68;;;;;;;8.40;58.85;99250.16;1722429;80;21166;-85
2021/01/21 14:17:50;;;;;;;19.50;8.73;;;;;;;8.23;60.33;99248.22;1724201;81;21291;-90
2021/01/21 14:20:18;;;;;;;19.40;8.90;;;;;;;8.00;61.25;99250.67;1746281;82;21289;-88
2021/01/21 14:22:46;;;;;;;17.77;8.88;;;;;;;7.97;60.32;99245.52;1746152;82;21670;-88
2021/01/21 14:25:14;;;;;;;20.43;9.90;;;;;;;7.87;61.04;99257.71;1747684;82;21195;-88
2021/01/21 14:27:42;;;;;;;15.70;8.90;;;;;;;7.76;61.65;99250.08;1747063;82;21163;-87
2021/01/21 14:30:11;;;;;;;21.68;10.18;;;;;;;7.70;62.79;99251.45;1747099;82;21644;-85
2021/01/21 14:32:39;;;;;;;20.43;9.83;;;;;;;7.65;61.39;99254.51;1750595;82;21327;-85
2021/01/21 14:35:27;;;;;;;25.45;10.35;;;;;;;7.58;61.93;99250.29;1716086;80;21253;-85
2021/01/21 14:38:26;;;;;;;22.42;10.90;;;;;;;7.47;63.75;99252.12;1726735;78;21302;-85
2021/01/21 14:41:04;;;;;;;30.27;12.78;;;;;;;7.36;64.18;99247.03;1750636;79;21389;-85
2021/01/21 14:43:39;;;;;;;29.40;12.50;;;;;;;7.23;64.77;99246.30;1752053;79;21097;-85
2021/01/21 14:46:19;;;;;;;29.15;11.85;;;;;;;7.15;63.57;99250.69;1722483;78;21195;-84
2021/01/21 14:49:17;;;;;;;30.52;12.55;;;;;;;7.06;65.70;99248.17;1733335;82;21128;-84
2021/01/21 14:51:46;;;;;;;41.37;17.00;;;;;;;6.98;65.91;99253.40;1711752;82;21274;-83
2021/01/21 14:54:17;;;;;;;39.83;20.12;;;;;;;6.94;65.80;99252.59;1716484;82;21604;-82
2021/01/21 14:56:49;;;;;;;34.18;16.50;;;;;;;6.97;65.81;99252.55;1725359;80;21128;-83
2021/01/21 14:59:29;;;;;;;31.20;15.03;;;;;;;6.99;66.00;99252.55;1727675;78;21292;-84
2021/01/21 15:02:19;;;;;;;37.50;13.88;;;;;;;6.91;65.55;99249.17;1747100;78;21137;-84
2021/01/21 15:04:56;;;;;;;26.27;15.03;;;;;;;6.80;66.03;99246.64;1754619;79;21255;-84
2021/01/21 15:07:30;;;;;;;31.60;14.63;;;;;;;6.74;65.91;99250.16;1735987;81;21306;-83